Portada
METAR-TAF:

METAR-TAF

Aeroports :

Gwadar, Pakistan

latitud: 25-13-59N, longitud: 062-19-46E, altitud: 29 m

METAR: manca

Hora: 23:37 (18:37 UTC)

Pronòstic

L'informe es va fer fa 2 hores i 37 minuts, a les 16:00 UTC
Pronòstic vàlid del 25 a les 18 UTC al 26 a les 18 UTC
Vent 8 kt del Oest
Visibilitat: 3000 m
Núvols disperses a una alçada de 2000 ft
calitja
Temporalment
l' 26 a les 00 UTC al 26 a les 04 UTC
Vent 2 kt amb direcció variable
Visibilitat: 2000 m
Núvols disperses a una alçada de 2000 ft
calitja
A partir de les 26 a les 0600 UTC
Vent 8 kt del Sud/Sud-Oest amb ràfegues de 18 kt
Visibilitat: 4000 m
calitja

TAF: OPGD 251600Z 2518/2618 26008KT 3000 HZ SCT020 TEMPO 2600/2604 VRB02KT 2000 HZ SCT020 FM260600 21008G18KT 4000 HZ NSC

Observacions i pronòstics meteorològics de més de 4000 aeroports (METAR i TAF).

Les estacions disponibles són els punts grocs i vermells al mapa.

Posi el ratolí al punt desitjat per veure el nom de l'estació.

Feu clic per veure les observacions i els pronòstics meteorològics.

Per canviar el mapa: feu clic els botons verds amb una creu de color negre per apropar; al botó verd amb un guió per allunyar la imatge; o en les fletxes verdes per a mapes adjacents.


METAR-TAF: